• Join FlightAware (Why Join?)
  • Login
  • US Flag 
01:49PM EDT


 

Airport Tracker/Info


-or-


 

Live Flight TrackerFlight Track Log ✈ FLG3735 ✈ 12-May-2013 ✈ KDTW - KALB

Flight Track Log - Related Links

Times and Time Zones

All times are in EDT time to prevent confusion due to time zone crossing. See the FLG3735 flight status page for this flight to view local times or setup timezone preferences in your user account.

Time Position Orientation Groundspeed Altitude Reporting Facility
EDT Latitude Longitude Course Direction KTS MPH feet Rate Location/Type
08:38PM 42.1994 -83.3553 90° East 161 185 1,300  Level Cleveland Center
08:40PM 42.1311 -83.3439 173° South 223 257 4,400 2,220 Climbing Cleveland Center
08:41PM 42.2898 -82.8844 75° East  Level FlightAware Approximate
08:41PM 42.0686 -83.2544 133° Southeast 299 344 7,200  Level Cleveland Center
08:41PM 42.0786 -83.1736 81° East 294 338 8,900 1,680 Climbing Cleveland Center
08:42PM 42.3188 -82.7288 82° East  Level FlightAware Approximate
08:42PM 42.1203 -83.0886 57° Northeast 306 352 10,000  Level Cleveland Center
08:43PM 42.3366 -82.5702 71° East  Level FlightAware Approximate
08:43PM 42.1642 -82.9811 61° Northeast 311 358 11,100  Level Cleveland Center
08:44PM 42.3667 -82.4193 90° East  Level FlightAware Approximate
08:44PM 42.2103 -82.8622 62° Northeast 332 382 12,100  Level Cleveland Center
08:45PM 42.2608 -82.7322 62° Northeast 358 412 13,400 1,260 Climbing Cleveland Center
08:46PM 42.3133 -82.5936 63° Northeast 386 444 14,700 1,200 Climbing Cleveland Center
08:47PM 42.3614 -82.4603 64° Northeast 399 459 15,900 1,200 Climbing Cleveland Center
08:48PM 42.3619 -82.3000 90° East 399 459 17,100 1,140 Climbing Cleveland Center
08:49PM 42.3558 -82.1342 93° East 410 472 18,200 1,140 Climbing Cleveland Center
08:50PM 42.3494 -81.9906 93° East 427 491 19,400 1,200 Climbing Cleveland Center
08:51PM 42.3389 -81.8136 95° East 434 499 20,600 1,200 Climbing Cleveland Center
08:52PM 42.3344 -81.6478 92° East 434 499 21,800 1,200 Climbing Cleveland Center
08:53PM 42.3275 -81.4847 93° East 434 499 23,000 1,080 Climbing Cleveland Center
08:54PM 42.3181 -81.3244 95° East 434 499 24,000 840 Climbing Cleveland Center
08:55PM 42.3108 -81.1617 93° East 434 499 24,700 720 Climbing Cleveland Center
08:56PM 42.3031 -80.9958 94° East 439 505 25,500 720 Climbing Cleveland Center
08:57PM 42.2933 -80.8244 94° East 446 513 26,200 660 Climbing Cleveland Center
08:58PM 42.2831 -80.6506 95° East 453 521 26,900 600 Climbing Cleveland Center
08:59PM 42.2747 -80.4989 94° East 453 521 27,500 600 Climbing Cleveland Center
09:00PM 42.2661 -80.3278 94° East 453 521 28,200 660 Climbing Cleveland Center
09:01PM 42.2553 -80.1597 95° East 458 527 28,900 360 Climbing Cleveland Center
09:02PM 42.2522 -79.9828 91° East 463 533 29,000  Climbing Cleveland Center
09:03PM 42.2700 -79.8086 82° East 463 533 29,000  Level Cleveland Center
09:04PM 42.2894 -79.6261 82° East 473 544 29,000  Level Cleveland Center
09:05PM 42.3086 -79.4433 82° East 484 557 29,000  Level Cleveland Center
09:06PM 42.3275 -79.2603 82° East 484 557 29,000  Level Cleveland Center
09:07PM 42.3461 -79.0775 82° East 484 557 29,000  Level Cleveland Center
09:08PM 42.3644 -78.8914 82° East 484 557 29,000  Level Cleveland Center
09:09PM 42.3825 -78.7083 82° East 484 557 29,000  Level Cleveland Center
09:10PM 42.4003 -78.5250 82° East 484 557 29,000  Level Cleveland Center
09:11PM 42.4175 -78.3417 83° East 484 557 29,000  Level Cleveland Center
09:12PM 42.4347 -78.1608 83° East 484 557 29,000  Level Cleveland Center
09:13PM 42.4517 -77.9744 83° East 484 557 29,000  Level Cleveland Center
09:14PM 42.4697 -77.7767 83° East 484 557 29,000  Level Cleveland Center
09:15PM 42.4881 -77.5928 82° East 484 557 29,000  Level Cleveland Center
09:16PM 42.5022 -77.4119 84° East 484 557 29,000  Level Cleveland Center
09:18PM 42.5250 -77.1203 84° East 482 555 29,000  Level Boston Center
09:19PM 42.5408 -76.9356 83° East 482 555 29,000  Level Boston Center
09:20PM 42.5561 -76.7503 84° East 487 560 29,000  Level Boston Center
09:21PM 42.5694 -76.5653 84° East 487 560 29,000  Level Boston Center
09:22PM 42.5842 -76.3800 84° East 492 566 29,000  Level Boston Center
09:23PM 42.5989 -76.1975 84° East 497 572 29,000  Level Boston Center
09:24PM 42.6133 -76.0092 84° East 497 572 29,000  Level Boston Center
09:25PM 42.6231 -75.8236 86° East 497 572 29,000 -120 Level Boston Center
09:26PM 42.6367 -75.6408 84° East 497 572 28,800 -1,620 Descending Boston Center
09:27PM 42.6500 -75.4550 84° East 497 572 25,800 -3,000 Descending Boston Center
09:28PM 42.6631 -75.2778 84° East 492 566 22,900 -2,880 Descending Boston Center
09:29PM 42.6714 -75.1089 86° East 468 539 20,100 -3,000 Descending Boston Center
09:30PM 42.6811 -74.9481 85° East 440 506 17,000 -3,240 Descending Boston Center
09:31PM 42.6894 -74.8608 83° East 401 461 15,300 -3,000 Descending Boston Center
09:31PM 42.6908 -74.7931 88° East 422 486 14,000 -3,000 Descending Boston Center
09:32PM 42.6983 -74.7228 82° East 391 450 12,600 -2,940 Descending Boston Center
09:32PM 42.7022 -74.6325 87° East 396 456 11,100 -1,620 Descending Boston Center
09:33PM 42.7053 -74.5817 85° East 378 435 11,000 -120 Descending Boston Center
09:33PM 42.7089 -74.5083 86° East 375 432 11,000 -120 Level Boston Center
09:34PM 42.7058 -74.4433 94° East 362 417 10,900 -720 Descending Boston Center
09:34PM 42.7031 -74.3642 93° East 351 404 10,300 -1,020 Descending Boston Center
09:35PM 42.6994 -74.3189 96° East 316 364 9,900 -900 Descending Boston Center
09:35PM 42.6983 -74.2681 92° East 333 383 9,400 -1,620 Descending Boston Center
09:36PM 42.6972 -74.2000 91° East 316 364 8,300 -1,740 Descending Boston Center
09:36PM 42.6936 -74.1633 98° East 314 361 7,700 -1,980 Descending Boston Center
09:37PM 42.6889 -74.0756 94° East 307 353 6,300 -2,220 Descending Boston Center
09:37PM 42.6856 -74.0161 94° East 304 350 5,500 -1,440 Descending Boston Center
09:38PM 42.6797 -73.9681 99° East 291 335 4,900 -1,320 Descending Boston Center
09:38PM 42.6806 -73.9114 89° East 293 337 4,200 -1,320 Descending Boston Center
09:39PM 42.6833 -73.8636 85° East 263 303 3,600 -1,200 Descending Boston Center
09:39PM 42.6861 -73.8128 86° East 270 311 3,000 -600 Descending Boston Center
09:40PM 42.6864 -73.7761 89° East 229 264 3,000 -120 Level Boston Center
09:40PM 42.6911 -73.7339 81° East 241 277 2,900 -300 Descending Boston Center
09:41PM 42.6914 -73.7000 89° East 191 220 2,700 -120 Descending Boston Center
09:41PM 42.7022 -73.6719 62° Northeast 198 228 2,800 180 Climbing Boston Center